地図

経路データ

SID SEASON NUMBER BASIN SUBBASIN NAME ISO_TIME NATURE LAT LON WMO_WIND WMO_PRES WMO_AGENCY TRACK_TYPE DIST2LAND LANDFALL IFLAG USA_AGENCY USA_ATCF_ID USA_LAT USA_LON USA_RECORD USA_STATUS USA_WIND USA_PRES USA_SSHS USA_R34_NE USA_R34_SE USA_R34_SW USA_R34_NW USA_R50_NE USA_R50_SE USA_R50_SW USA_R50_NW USA_R64_NE USA_R64_SE USA_R64_SW USA_R64_NW USA_POCI USA_ROCI USA_RMW USA_EYE TOKYO_LAT TOKYO_LON TOKYO_GRADE TOKYO_WIND TOKYO_PRES TOKYO_R50_DIR TOKYO_R50_LONG TOKYO_R50_SHORT TOKYO_R30_DIR TOKYO_R30_LONG TOKYO_R30_SHORT TOKYO_LAND CMA_LAT CMA_LON CMA_CAT CMA_WIND CMA_PRES HKO_LAT HKO_LON HKO_CAT HKO_WIND HKO_PRES NEWDELHI_LAT NEWDELHI_LON NEWDELHI_GRADE NEWDELHI_WIND NEWDELHI_PRES NEWDELHI_CI NEWDELHI_DP NEWDELHI_POCI REUNION_LAT REUNION_LON REUNION_TYPE REUNION_WIND REUNION_PRES REUNION_TNUM REUNION_CI REUNION_RMW REUNION_R34_NE REUNION_R34_SE REUNION_R34_SW REUNION_R34_NW REUNION_R50_NE REUNION_R50_SE REUNION_R50_SW REUNION_R50_NW REUNION_R64_NE REUNION_R64_SE REUNION_R64_SW REUNION_R64_NW BOM_LAT BOM_LON BOM_TYPE BOM_WIND BOM_PRES BOM_TNUM BOM_CI BOM_RMW BOM_R34_NE BOM_R34_SE BOM_R34_SW BOM_R34_NW BOM_R50_NE BOM_R50_SE BOM_R50_SW BOM_R50_NW BOM_R64_NE BOM_R64_SE BOM_R64_SW BOM_R64_NW BOM_ROCI BOM_POCI BOM_EYE BOM_POS_METHOD BOM_PRES_METHOD NADI_LAT NADI_LON NADI_CAT NADI_WIND NADI_PRES WELLINGTON_LAT WELLINGTON_LON WELLINGTON_WIND WELLINGTON_PRES DS824_LAT DS824_LON DS824_STAGE DS824_WIND DS824_PRES TD9636_LAT TD9636_LON TD9636_STAGE TD9636_WIND TD9636_PRES TD9635_LAT TD9635_LON TD9635_WIND TD9635_PRES TD9635_ROCI NEUMANN_LAT NEUMANN_LON NEUMANN_CLASS NEUMANN_WIND NEUMANN_PRES MLC_LAT MLC_LON MLC_CLASS MLC_WIND MLC_PRES USA_GUST BOM_GUST BOM_GUST_PER REUNION_GUST REUNION_GUST_PER USA_SEAHGT USA_SEARAD_NE USA_SEARAD_SE USA_SEARAD_SW USA_SEARAD_NW STORM_SPEED STORM_DIR
1950160N19091 1950 27 NI BB NOT_NAMED 1950-06-08 18:00:00 TS 18.9000 91.0000 main 237 237 O________O____ jtwc_io IO031950 18.9000 91.0000 -1 18.9000 91.0000 TC 3 304
1950160N19091 1950 27 NI BB NOT_NAMED 1950-06-08 21:00:00 TS 18.9825 90.8650 main 238 238 P________P____ IO031950 18.9825 90.8650 -1 18.9825 90.8650 TC 3 305
1950160N19091 1950 27 NI BB NOT_NAMED 1950-06-09 00:00:00 TS 19.1000 90.7000 main 248 248 O________O____ jtwc_io IO031950 19.1000 90.7000 -1 19.1000 90.7000 TC 25 5 309
1950160N19091 1950 27 NI BB NOT_NAMED 1950-06-09 03:00:00 TS 19.2800 90.4822 main 252 252 P________PO___ IO031950 19.2775 90.4799 -1 19.2775 90.4799 TC 25 19.3000 90.5000 1 6 310
1950160N19091 1950 27 NI BB NOT_NAMED 1950-06-09 06:00:00 TS 19.5061 90.1868 main 257 228 O________OP___ jtwc_io IO031950 19.5000 90.2000 -1 19.5000 90.2000 TC 25 19.5305 90.1339 1 8 308
1950160N19091 1950 27 NI BB NOT_NAMED 1950-06-09 09:00:00 TS 19.7524 89.8320 main 214 183 P________PP___ IO031950 19.7501 89.8501 -1 19.7501 89.8501 TC 25 19.7584 89.7838 1 8 307
1950160N19091 1950 27 NI BB NOT_NAMED 1950-06-09 12:00:00 TS 19.9940 89.4889 main 183 156 O________OP___ jtwc_io IO031950 20.0000 89.5000 -1 20.0000 89.5000 TC 25 19.9821 89.4667 1 7 308
1950160N19091 1950 27 NI BB NOT_NAMED 1950-06-09 15:00:00 TS 20.2000 89.2132 main 156 134 P________PO___ IO031950 20.1999 89.2199 -1 20.1999 89.2199 TC 30 20.2000 89.2000 1 6 312
1950160N19091 1950 27 NI BB NOT_NAMED 1950-06-09 18:00:00 TS 20.4041 88.9978 main 134 111 O________OP___ jtwc_io IO031950 20.4000 89.0000 -1 20.4000 89.0000 TC 35 20.4124 88.9934 1 6 321
1950160N19091 1950 27 NI BB NOT_NAMED 1950-06-09 21:00:00 TS 20.6373 88.8371 main 112 80 P________PP___ IO031950 20.6424 88.8424 -1 20.6424 88.8424 TC 35 20.6269 88.8265 1 6 329
1950160N19091 1950 27 NI BB NOT_NAMED 1950-06-10 00:00:00 TS 20.8843 88.6905 main 80 55 O________OP___ jtwc_io IO031950 20.9000 88.7000 -1 20.9000 88.7000 TC 35 20.8530 88.6714 1 6 328
1950160N19091 1950 27 NI BB NOT_NAMED 1950-06-10 03:00:00 TS 21.1233 88.5099 main 55 22 P________PO___ IO031950 21.1350 88.5149 -1 21.1350 88.5149 TC 35 21.1000 88.5000 3 6 325
1950160N19091 1950 27 NI BB NOT_NAMED 1950-06-10 06:00:00 TS 21.4009 88.2960 main 22 0 O________OP___ jtwc_io IO031950 21.4000 88.3000 -1 21.4000 88.3000 TC 35 21.4026 88.2880 3 8 326
1950160N19091 1950 27 NI BB NOT_NAMED 1950-06-10 09:00:00 TS 21.7507 88.0610 main 10 0 P________PP___ IO031950 21.7650 88.0651 -1 21.7650 88.0651 TC 30 21.7222 88.0528 3 8 326
1950160N19091 1950 27 NI BB NOT_NAMED 1950-06-10 12:00:00 TS 22.0769 87.7970 main 0 0 O________OP___ jtwc_io IO031950 22.1000 87.8000 -1 22.1000 87.8000 TC 25 22.0307 87.7911 3 7 317
1950160N19091 1950 27 NI BB NOT_NAMED 1950-06-10 15:00:00 TS 22.2866 87.5148 main 0 0 P________PO___ IO031950 22.2799 87.5222 -1 22.2799 87.5222 TC 25 22.3000 87.5000 1 7 302
1950160N19091 1950 27 NI BB NOT_NAMED 1950-06-10 18:00:00 TS 22.4312 87.1847 main 0 0 O________OP___ jtwc_io IO031950 22.4000 87.2000 -1 22.4000 87.2000 TC 25 22.4935 87.1541 1 7 294
1950160N19091 1950 27 NI BB NOT_NAMED 1950-06-10 21:00:00 TS 22.5819 86.7949 main 0 0 P________PP___ IO031950 22.5501 86.8000 -1 22.5501 86.8000 TC 25 22.6455 86.7847 1 8 292
1950160N19091 1950 27 NI BB NOT_NAMED 1950-06-11 00:00:00 TS 22.7249 86.4076 main 0 0 O________OP___ jtwc_io IO031950 22.7000 86.4000 -1 22.7000 86.4000 TC 25 22.7747 86.4229 1 7 293
1950160N19091 1950 27 NI BB NOT_NAMED 1950-06-11 03:00:00 TS 22.8666 86.0800 main 0 0 P________PO___ IO031950 22.8499 86.0699 -1 22.8499 86.0699 TC 25 22.9000 86.1000 1 6 298
1950160N19091 1950 27 NI BB NOT_NAMED 1950-06-11 06:00:00 TS 23.0179 85.8121 main 0 0 O________OP___ jtwc_io IO031950 23.0000 85.8000 -1 23.0000 85.8000 TC 25 23.0538 85.8364 1 5 304
1950160N19091 1950 27 NI BB NOT_NAMED 1950-06-11 09:00:00 TS 23.1690 85.5858 main 0 0 P________PP___ IO031950 23.1500 85.5700 -1 23.1500 85.5700 TC 25 23.2072 85.6173 1 5 309
1950160N19091 1950 27 NI BB NOT_NAMED 1950-06-11 12:00:00 TS 23.3190 85.4132 main 0 0 O________OP___ jtwc_io IO031950 23.3000 85.4000 -1 23.3000 85.4000 TC 25 23.3570 85.4396 1 4 318
1950160N19091 1950 27 NI BB NOT_NAMED 1950-06-11 15:00:00 TS 23.4666 85.2900 main 0 0 P________PO___ IO031950 23.4500 85.2849 -1 23.4500 85.2849 TC 25 23.5000 85.3000 1 4 326
1950160N19091 1950 27 NI BB NOT_NAMED 1950-06-11 18:00:00 TS 23.6135 85.1978 main 0 0 O________OP___ jtwc_io IO031950 23.6000 85.2000 -1 23.6000 85.2000 TC 25 23.6338 85.1944 1 3 330
1950160N19091 1950 27 NI BB NOT_NAMED 1950-06-11 21:00:00 TS 23.7543 85.1093 main 0 0 P________PP___ IO031950 23.7500 85.1051 -1 23.7500 85.1051 TC 25 23.7601 85.1150 1 3 330
1950160N19091 1950 27 NI BB NOT_NAMED 1950-06-12 00:00:00 TS 23.8907 85.0266 main 0 0 O________OP___ jtwc_io IO031950 23.9000 85.0000 -1 23.9000 85.0000 TC 25 23.8813 85.0532 1 3 338
1950160N19091 1950 27 NI BB NOT_NAMED 1950-06-12 03:00:00 NR 24.0000 85.0000 main 0 __________O___ IO031950 -1 TC 24.0000 85.0000 1 2 348

IBTrACS Databaseについて

本データベースは、米国NOAAが公開する1842年以降の世界の熱帯低気圧のベストトラックデータアーカイブInternational Best Track Archive for Climate Stewardship (IBTrACS)を、ウェブで閲覧しやすい形式に変換したものです。

最終更新日:2021-10-21